sensor_id;sensor_type;location;lat;lon;timestamp;temperature;humidity
67777;DHT22;54576;52.020;5.536;2024-03-08T00:00:16;3.90;99.90
67777;DHT22;54576;52.020;5.536;2024-03-08T00:02:45;3.90;99.90
67777;DHT22;54576;52.020;5.536;2024-03-08T00:10:04;3.90;99.90
67777;DHT22;54576;52.020;5.536;2024-03-08T00:12:30;3.80;99.90
67777;DHT22;54576;52.020;5.536;2024-03-08T00:14:56;3.80;99.90
67777;DHT22;54576;52.020;5.536;2024-03-08T00:17:22;3.70;99.90
67777;DHT22;54576;52.020;5.536;2024-03-08T00:19:50;3.70;99.90
67777;DHT22;54576;52.020;5.536;2024-03-08T00:22:17;3.70;99.90
67777;DHT22;54576;52.020;5.536;2024-03-08T00:24:43;3.70;99.90
67777;DHT22;54576;52.020;5.536;2024-03-08T00:27:09;3.60;99.90
67777;DHT22;54576;52.020;5.536;2024-03-08T00:29:35;3.60;99.90
67777;DHT22;54576;52.020;5.536;2024-03-08T00:32:00;3.60;99.90
67777;DHT22;54576;52.020;5.536;2024-03-08T00:34:26;3.50;99.90
67777;DHT22;54576;52.020;5.536;2024-03-08T00:36:52;3.50;99.90
67777;DHT22;54576;52.020;5.536;2024-03-08T00:39:18;3.50;99.90
67777;DHT22;54576;52.020;5.536;2024-03-08T00:41:46;3.50;99.90
67777;DHT22;54576;52.020;5.536;2024-03-08T00:44:12;3.40;99.90
67777;DHT22;54576;52.020;5.536;2024-03-08T00:46:37;3.40;99.90
67777;DHT22;54576;52.020;5.536;2024-03-08T00:49:03;3.40;99.90
67777;DHT22;54576;52.020;5.536;2024-03-08T00:51:29;3.40;99.90
67777;DHT22;54576;52.020;5.536;2024-03-08T00:56:20;3.50;99.90
67777;DHT22;54576;52.020;5.536;2024-03-08T00:58:46;3.50;99.90
67777;DHT22;54576;52.020;5.536;2024-03-08T01:01:13;3.40;99.90
67777;DHT22;54576;52.020;5.536;2024-03-08T01:03:42;3.40;99.90
67777;DHT22;54576;52.020;5.536;2024-03-08T01:06:08;3.40;99.90
67777;DHT22;54576;52.020;5.536;2024-03-08T01:08:34;3.30;99.90
67777;DHT22;54576;52.020;5.536;2024-03-08T01:10:59;3.30;99.90
67777;DHT22;54576;52.020;5.536;2024-03-08T01:13:25;3.30;99.90
67777;DHT22;54576;52.020;5.536;2024-03-08T01:15:51;3.30;99.90
67777;DHT22;54576;52.020;5.536;2024-03-08T01:18:16;3.30;99.90
67777;DHT22;54576;52.020;5.536;2024-03-08T01:20:42;3.30;99.90
67777;DHT22;54576;52.020;5.536;2024-03-08T01:23:08;3.20;99.90
67777;DHT22;54576;52.020;5.536;2024-03-08T01:25:34;3.20;99.90
67777;DHT22;54576;52.020;5.536;2024-03-08T01:28:00;3.10;99.90
67777;DHT22;54576;52.020;5.536;2024-03-08T01:30:25;3.10;99.90
67777;DHT22;54576;52.020;5.536;2024-03-08T01:32:51;3.00;99.90
67777;DHT22;54576;52.020;5.536;2024-03-08T01:35:16;3.00;99.90
67777;DHT22;54576;52.020;5.536;2024-03-08T01:37:43;2.90;99.90
67777;DHT22;54576;52.020;5.536;2024-03-08T01:40:09;2.90;99.90
67777;DHT22;54576;52.020;5.536;2024-03-08T01:42:35;2.90;99.90
67777;DHT22;54576;52.020;5.536;2024-03-08T01:45:06;2.90;99.90
67777;DHT22;54576;52.020;5.536;2024-03-08T01:47:32;2.90;99.90
67777;DHT22;54576;52.020;5.536;2024-03-08T01:49:59;2.90;99.90
67777;DHT22;54576;52.020;5.536;2024-03-08T01:52:28;2.80;99.90
67777;DHT22;54576;52.020;5.536;2024-03-08T01:54:54;2.80;99.90
67777;DHT22;54576;52.020;5.536;2024-03-08T01:57:20;2.80;99.90
67777;DHT22;54576;52.020;5.536;2024-03-08T01:59:46;2.80;99.90
67777;DHT22;54576;52.020;5.536;2024-03-08T02:02:15;2.70;99.90
67777;DHT22;54576;52.020;5.536;2024-03-08T02:04:43;2.70;99.90
67777;DHT22;54576;52.020;5.536;2024-03-08T02:07:09;2.70;99.90
67777;DHT22;54576;52.020;5.536;2024-03-08T02:09:35;2.70;99.90
67777;DHT22;54576;52.020;5.536;2024-03-08T02:12:01;2.60;99.90
67777;DHT22;54576;52.020;5.536;2024-03-08T02:14:26;2.60;99.90
67777;DHT22;54576;52.020;5.536;2024-03-08T02:16:52;2.60;99.90
67777;DHT22;54576;52.020;5.536;2024-03-08T02:19:17;2.50;99.90
67777;DHT22;54576;52.020;5.536;2024-03-08T02:21:43;2.50;99.90
67777;DHT22;54576;52.020;5.536;2024-03-08T02:24:09;2.50;99.90
67777;DHT22;54576;52.020;5.536;2024-03-08T02:26:35;2.50;99.90
67777;DHT22;54576;52.020;5.536;2024-03-08T02:29:01;2.50;99.90
67777;DHT22;54576;52.020;5.536;2024-03-08T02:31:27;2.40;99.90
67777;DHT22;54576;52.020;5.536;2024-03-08T02:33:52;2.40;99.90
67777;DHT22;54576;52.020;5.536;2024-03-08T02:36:18;2.40;99.90
67777;DHT22;54576;52.020;5.536;2024-03-08T02:38:43;2.40;99.90
67777;DHT22;54576;52.020;5.536;2024-03-08T02:41:09;2.40;99.90
67777;DHT22;54576;52.020;5.536;2024-03-08T02:43:35;2.40;99.90
67777;DHT22;54576;52.020;5.536;2024-03-08T02:46:01;2.40;99.90
67777;DHT22;54576;52.020;5.536;2024-03-08T02:48:26;2.40;99.90
67777;DHT22;54576;52.020;5.536;2024-03-08T02:50:52;2.40;99.90
67777;DHT22;54576;52.020;5.536;2024-03-08T02:53:18;2.30;99.90
67777;DHT22;54576;52.020;5.536;2024-03-08T02:55:44;2.30;99.90
67777;DHT22;54576;52.020;5.536;2024-03-08T02:58:10;2.40;99.90
67777;DHT22;54576;52.020;5.536;2024-03-08T03:00:36;2.30;99.90
67777;DHT22;54576;52.020;5.536;2024-03-08T03:03:02;2.30;99.90
67777;DHT22;54576;52.020;5.536;2024-03-08T03:05:28;2.30;99.90
67777;DHT22;54576;52.020;5.536;2024-03-08T03:07:55;2.30;99.90
67777;DHT22;54576;52.020;5.536;2024-03-08T03:10:21;2.20;99.90
67777;DHT22;54576;52.020;5.536;2024-03-08T03:12:49;2.20;99.90
67777;DHT22;54576;52.020;5.536;2024-03-08T03:15:15;2.20;99.90
67777;DHT22;54576;52.020;5.536;2024-03-08T03:17:53;2.20;99.90
67777;DHT22;54576;52.020;5.536;2024-03-08T03:20:20;2.20;99.90
67777;DHT22;54576;52.020;5.536;2024-03-08T03:22:52;2.20;99.90
67777;DHT22;54576;52.020;5.536;2024-03-08T03:25:19;2.10;99.90
67777;DHT22;54576;52.020;5.536;2024-03-08T03:27:49;2.10;99.90
67777;DHT22;54576;52.020;5.536;2024-03-08T03:30:15;2.10;99.90
67777;DHT22;54576;52.020;5.536;2024-03-08T03:32:50;2.10;99.90
67777;DHT22;54576;52.020;5.536;2024-03-08T03:35:19;2.10;99.90
67777;DHT22;54576;52.020;5.536;2024-03-08T03:37:48;2.10;99.90
67777;DHT22;54576;52.020;5.536;2024-03-08T03:40:30;2.00;99.90
67777;DHT22;54576;52.020;5.536;2024-03-08T03:42:56;2.00;99.90
67777;DHT22;54576;52.020;5.536;2024-03-08T03:45:22;2.00;99.90
67777;DHT22;54576;52.020;5.536;2024-03-08T03:47:48;2.00;99.90
67777;DHT22;54576;52.020;5.536;2024-03-08T03:50:14;2.00;99.90
67777;DHT22;54576;52.020;5.536;2024-03-08T03:52:39;2.00;99.90
67777;DHT22;54576;52.020;5.536;2024-03-08T03:55:05;1.90;99.90
67777;DHT22;54576;52.020;5.536;2024-03-08T03:57:31;1.90;99.90
67777;DHT22;54576;52.020;5.536;2024-03-08T03:59:57;1.90;99.90
67777;DHT22;54576;52.020;5.536;2024-03-08T04:02:24;1.90;99.90
67777;DHT22;54576;52.020;5.536;2024-03-08T04:04:54;1.90;99.90
67777;DHT22;54576;52.020;5.536;2024-03-08T04:07:20;1.80;99.90
67777;DHT22;54576;52.020;5.536;2024-03-08T04:09:46;1.80;99.90
67777;DHT22;54576;52.020;5.536;2024-03-08T04:12:12;1.80;99.90
67777;DHT22;54576;52.020;5.536;2024-03-08T04:14:40;1.80;99.90
67777;DHT22;54576;52.020;5.536;2024-03-08T04:17:06;1.80;99.90
67777;DHT22;54576;52.020;5.536;2024-03-08T04:19:34;1.70;99.90
67777;DHT22;54576;52.020;5.536;2024-03-08T04:22:00;1.70;99.90
67777;DHT22;54576;52.020;5.536;2024-03-08T04:24:26;1.80;99.90
67777;DHT22;54576;52.020;5.536;2024-03-08T04:26:52;1.70;99.90
67777;DHT22;54576;52.020;5.536;2024-03-08T04:29:18;1.70;99.90
67777;DHT22;54576;52.020;5.536;2024-03-08T04:31:44;1.70;99.90
67777;DHT22;54576;52.020;5.536;2024-03-08T04:34:10;1.70;99.90
67777;DHT22;54576;52.020;5.536;2024-03-08T04:36:35;1.70;99.90
67777;DHT22;54576;52.020;5.536;2024-03-08T04:39:01;1.60;99.90
67777;DHT22;54576;52.020;5.536;2024-03-08T04:41:27;1.60;99.90
67777;DHT22;54576;52.020;5.536;2024-03-08T04:43:52;1.60;99.90
67777;DHT22;54576;52.020;5.536;2024-03-08T04:46:18;1.60;99.90
67777;DHT22;54576;52.020;5.536;2024-03-08T04:48:44;1.60;99.90
67777;DHT22;54576;52.020;5.536;2024-03-08T04:51:13;1.60;99.90
67777;DHT22;54576;52.020;5.536;2024-03-08T04:53:38;1.60;99.90
67777;DHT22;54576;52.020;5.536;2024-03-08T04:56:04;1.60;99.90
67777;DHT22;54576;52.020;5.536;2024-03-08T04:58:35;1.50;99.90
67777;DHT22;54576;52.020;5.536;2024-03-08T05:01:01;1.50;99.90
67777;DHT22;54576;52.020;5.536;2024-03-08T05:03:27;1.50;99.90
67777;DHT22;54576;52.020;5.536;2024-03-08T05:05:52;1.50;99.90
67777;DHT22;54576;52.020;5.536;2024-03-08T05:08:18;1.50;99.90
67777;DHT22;54576;52.020;5.536;2024-03-08T05:10:45;1.50;99.90
67777;DHT22;54576;52.020;5.536;2024-03-08T05:13:10;1.50;99.90
67777;DHT22;54576;52.020;5.536;2024-03-08T05:15:38;1.50;99.90
67777;DHT22;54576;52.020;5.536;2024-03-08T05:18:04;1.50;99.90
67777;DHT22;54576;52.020;5.536;2024-03-08T05:20:36;1.50;99.90
67777;DHT22;54576;52.020;5.536;2024-03-08T05:23:02;1.40;99.90
67777;DHT22;54576;52.020;5.536;2024-03-08T05:25:28;1.40;99.90
67777;DHT22;54576;52.020;5.536;2024-03-08T05:27:54;1.40;99.90
67777;DHT22;54576;52.020;5.536;2024-03-08T05:30:21;1.40;99.90
67777;DHT22;54576;52.020;5.536;2024-03-08T05:32:47;1.40;99.90
67777;DHT22;54576;52.020;5.536;2024-03-08T05:35:13;1.40;99.90
67777;DHT22;54576;52.020;5.536;2024-03-08T05:37:41;1.40;99.90
67777;DHT22;54576;52.020;5.536;2024-03-08T05:40:08;1.40;99.90
67777;DHT22;54576;52.020;5.536;2024-03-08T05:42:35;1.40;99.90
67777;DHT22;54576;52.020;5.536;2024-03-08T05:45:02;1.40;99.90
67777;DHT22;54576;52.020;5.536;2024-03-08T05:47:28;1.40;99.90
67777;DHT22;54576;52.020;5.536;2024-03-08T05:49:53;1.40;99.90
67777;DHT22;54576;52.020;5.536;2024-03-08T05:52:19;1.40;99.90
67777;DHT22;54576;52.020;5.536;2024-03-08T05:54:44;1.40;99.90
67777;DHT22;54576;52.020;5.536;2024-03-08T05:57:11;1.40;99.90
67777;DHT22;54576;52.020;5.536;2024-03-08T05:59:37;1.40;99.90
67777;DHT22;54576;52.020;5.536;2024-03-08T06:02:02;1.40;99.90
67777;DHT22;54576;52.020;5.536;2024-03-08T06:04:28;1.40;99.90
67777;DHT22;54576;52.020;5.536;2024-03-08T06:06:55;1.40;99.90
67777;DHT22;54576;52.020;5.536;2024-03-08T06:09:22;1.40;99.90
67777;DHT22;54576;52.020;5.536;2024-03-08T06:11:49;1.40;99.90
67777;DHT22;54576;52.020;5.536;2024-03-08T06:14:14;1.40;99.90
67777;DHT22;54576;52.020;5.536;2024-03-08T06:16:44;1.40;99.90
67777;DHT22;54576;52.020;5.536;2024-03-08T06:19:10;1.40;99.90
67777;DHT22;54576;52.020;5.536;2024-03-08T06:21:35;1.40;99.90
67777;DHT22;54576;52.020;5.536;2024-03-08T06:24:01;1.40;99.90
67777;DHT22;54576;52.020;5.536;2024-03-08T06:26:27;1.40;99.90
67777;DHT22;54576;52.020;5.536;2024-03-08T06:28:54;1.40;99.90
67777;DHT22;54576;52.020;5.536;2024-03-08T06:31:20;1.50;99.90
67777;DHT22;54576;52.020;5.536;2024-03-08T06:33:45;1.50;99.90
67777;DHT22;54576;52.020;5.536;2024-03-08T06:36:11;1.60;99.90
67777;DHT22;54576;52.020;5.536;2024-03-08T06:38:38;1.80;99.90
67777;DHT22;54576;52.020;5.536;2024-03-08T06:41:11;2.00;99.90
67777;DHT22;54576;52.020;5.536;2024-03-08T06:43:45;2.20;99.90
67777;DHT22;54576;52.020;5.536;2024-03-08T06:46:11;2.40;99.90
67777;DHT22;54576;52.020;5.536;2024-03-08T06:48:40;2.60;99.90
67777;DHT22;54576;52.020;5.536;2024-03-08T06:51:05;2.70;99.90
67777;DHT22;54576;52.020;5.536;2024-03-08T06:53:31;2.70;99.90
67777;DHT22;54576;52.020;5.536;2024-03-08T06:55:58;2.90;99.90
67777;DHT22;54576;52.020;5.536;2024-03-08T06:58:24;2.90;99.90
67777;DHT22;54576;52.020;5.536;2024-03-08T07:00:49;2.90;99.90
67777;DHT22;54576;52.020;5.536;2024-03-08T07:03:18;2.90;99.90
67777;DHT22;54576;52.020;5.536;2024-03-08T07:05:44;2.80;99.90
67777;DHT22;54576;52.020;5.536;2024-03-08T07:08:10;2.60;99.90
67777;DHT22;54576;52.020;5.536;2024-03-08T07:10:35;2.50;99.90
67777;DHT22;54576;52.020;5.536;2024-03-08T07:13:02;2.40;99.90
67777;DHT22;54576;52.020;5.536;2024-03-08T07:15:28;2.40;99.90
67777;DHT22;54576;52.020;5.536;2024-03-08T07:17:54;2.40;99.90
67777;DHT22;54576;52.020;5.536;2024-03-08T07:20:21;2.40;99.90
67777;DHT22;54576;52.020;5.536;2024-03-08T07:22:47;2.40;99.90
67777;DHT22;54576;52.020;5.536;2024-03-08T07:25:14;2.40;99.90
67777;DHT22;54576;52.020;5.536;2024-03-08T07:27:56;2.40;99.90
67777;DHT22;54576;52.020;5.536;2024-03-08T07:30:23;2.50;99.90
67777;DHT22;54576;52.020;5.536;2024-03-08T07:33:07;2.50;99.90
67777;DHT22;54576;52.020;5.536;2024-03-08T07:35:37;2.60;99.90
67777;DHT22;54576;52.020;5.536;2024-03-08T07:38:04;2.60;99.90
67777;DHT22;54576;52.020;5.536;2024-03-08T07:40:31;2.70;99.90
67777;DHT22;54576;52.020;5.536;2024-03-08T07:42:57;2.70;99.90
67777;DHT22;54576;52.020;5.536;2024-03-08T07:45:23;2.70;99.90
67777;DHT22;54576;52.020;5.536;2024-03-08T07:47:49;2.80;99.90
67777;DHT22;54576;52.020;5.536;2024-03-08T07:50:16;2.80;99.90
67777;DHT22;54576;52.020;5.536;2024-03-08T07:52:42;2.80;99.90
67777;DHT22;54576;52.020;5.536;2024-03-08T07:55:08;3.00;99.90
67777;DHT22;54576;52.020;5.536;2024-03-08T07:57:33;3.10;99.90
67777;DHT22;54576;52.020;5.536;2024-03-08T07:59:59;3.20;99.90
67777;DHT22;54576;52.020;5.536;2024-03-08T08:02:25;3.20;99.90
67777;DHT22;54576;52.020;5.536;2024-03-08T08:24:23;3.80;99.90
67777;DHT22;54576;52.020;5.536;2024-03-08T08:26:49;3.80;99.90
67777;DHT22;54576;52.020;5.536;2024-03-08T08:29:15;3.90;99.90
67777;DHT22;54576;52.020;5.536;2024-03-08T08:31:41;4.00;99.90
67777;DHT22;54576;52.020;5.536;2024-03-08T08:34:09;4.10;99.90
67777;DHT22;54576;52.020;5.536;2024-03-08T08:36:34;4.10;99.90
67777;DHT22;54576;52.020;5.536;2024-03-08T08:39:00;4.20;99.90
67777;DHT22;54576;52.020;5.536;2024-03-08T08:41:28;4.30;99.90
67777;DHT22;54576;52.020;5.536;2024-03-08T08:43:54;4.40;99.90
67777;DHT22;54576;52.020;5.536;2024-03-08T08:46:20;4.50;99.90
67777;DHT22;54576;52.020;5.536;2024-03-08T08:48:46;4.60;99.90
67777;DHT22;54576;52.020;5.536;2024-03-08T08:51:12;4.60;99.90
67777;DHT22;54576;52.020;5.536;2024-03-08T08:53:42;4.70;99.90
67777;DHT22;54576;52.020;5.536;2024-03-08T08:56:12;4.70;99.90
67777;DHT22;54576;52.020;5.536;2024-03-08T08:58:44;4.80;99.90
67777;DHT22;54576;52.020;5.536;2024-03-08T09:01:10;5.00;99.90
67777;DHT22;54576;52.020;5.536;2024-03-08T09:03:37;4.90;99.90
67777;DHT22;54576;52.020;5.536;2024-03-08T09:06:06;5.00;99.90
67777;DHT22;54576;52.020;5.536;2024-03-08T09:08:35;5.10;99.90
67777;DHT22;54576;52.020;5.536;2024-03-08T09:11:01;5.20;99.90
67777;DHT22;54576;52.020;5.536;2024-03-08T09:13:27;5.30;99.90
67777;DHT22;54576;52.020;5.536;2024-03-08T09:15:53;5.40;99.90
67777;DHT22;54576;52.020;5.536;2024-03-08T09:18:18;5.40;99.50
67777;DHT22;54576;52.020;5.536;2024-03-08T09:20:44;5.40;99.90
67777;DHT22;54576;52.020;5.536;2024-03-08T09:23:10;5.50;99.70
67777;DHT22;54576;52.020;5.536;2024-03-08T09:25:35;5.60;98.30
67777;DHT22;54576;52.020;5.536;2024-03-08T09:28:01;5.60;98.60
67777;DHT22;54576;52.020;5.536;2024-03-08T09:30:26;5.70;99.10
67777;DHT22;54576;52.020;5.536;2024-03-08T09:32:52;5.70;98.90
67777;DHT22;54576;52.020;5.536;2024-03-08T09:37:45;6.10;99.90
67777;DHT22;54576;52.020;5.536;2024-03-08T09:40:13;6.10;99.60
67777;DHT22;54576;52.020;5.536;2024-03-08T09:42:41;6.10;99.70
67777;DHT22;54576;52.020;5.536;2024-03-08T09:45:11;6.20;99.00
67777;DHT22;54576;52.020;5.536;2024-03-08T09:47:41;6.30;99.40
67777;DHT22;54576;52.020;5.536;2024-03-08T09:50:08;6.40;99.00
67777;DHT22;54576;52.020;5.536;2024-03-08T09:52:39;6.40;99.20
67777;DHT22;54576;52.020;5.536;2024-03-08T09:55:10;6.50;97.80
67777;DHT22;54576;52.020;5.536;2024-03-08T09:57:39;6.50;97.30
67777;DHT22;54576;52.020;5.536;2024-03-08T10:00:06;6.60;98.10
67777;DHT22;54576;52.020;5.536;2024-03-08T10:02:45;6.60;98.90
67777;DHT22;54576;52.020;5.536;2024-03-08T10:05:12;6.70;98.80
67777;DHT22;54576;52.020;5.536;2024-03-08T10:07:39;6.80;98.30
67777;DHT22;54576;52.020;5.536;2024-03-08T10:10:05;6.90;98.60
67777;DHT22;54576;52.020;5.536;2024-03-08T10:12:30;7.00;98.70
67777;DHT22;54576;52.020;5.536;2024-03-08T10:14:58;7.00;98.60
67777;DHT22;54576;52.020;5.536;2024-03-08T10:17:24;7.10;98.30
67777;DHT22;54576;52.020;5.536;2024-03-08T10:19:51;7.10;98.00
67777;DHT22;54576;52.020;5.536;2024-03-08T10:22:19;7.20;97.30
67777;DHT22;54576;52.020;5.536;2024-03-08T10:24:46;7.20;98.10
67777;DHT22;54576;52.020;5.536;2024-03-08T10:27:12;7.30;98.30
67777;DHT22;54576;52.020;5.536;2024-03-08T10:29:37;7.40;97.90
67777;DHT22;54576;52.020;5.536;2024-03-08T10:32:08;7.40;97.70
67777;DHT22;54576;52.020;5.536;2024-03-08T10:34:34;7.40;96.10
67777;DHT22;54576;52.020;5.536;2024-03-08T10:37:03;7.50;97.50
67777;DHT22;54576;52.020;5.536;2024-03-08T10:39:35;7.60;97.20
67777;DHT22;54576;52.020;5.536;2024-03-08T10:42:03;7.60;97.00
67777;DHT22;54576;52.020;5.536;2024-03-08T10:49:38;7.80;96.00
67777;DHT22;54576;52.020;5.536;2024-03-08T10:52:10;7.80;94.40
67777;DHT22;54576;52.020;5.536;2024-03-08T10:54:38;7.80;94.80
67777;DHT22;54576;52.020;5.536;2024-03-08T10:57:05;7.80;94.50
67777;DHT22;54576;52.020;5.536;2024-03-08T10:59:31;7.90;95.70
67777;DHT22;54576;52.020;5.536;2024-03-08T11:01:59;8.00;96.00
67777;DHT22;54576;52.020;5.536;2024-03-08T11:04:25;8.10;96.00
67777;DHT22;54576;52.020;5.536;2024-03-08T11:06:51;8.20;95.50
67777;DHT22;54576;52.020;5.536;2024-03-08T11:12:24;8.40;93.60
67777;DHT22;54576;52.020;5.536;2024-03-08T11:15:01;8.50;92.30
67777;DHT22;54576;52.020;5.536;2024-03-08T11:19:59;8.70;94.40
67777;DHT22;54576;52.020;5.536;2024-03-08T11:22:32;8.70;92.90
67777;DHT22;54576;52.020;5.536;2024-03-08T11:25:05;8.80;90.60
67777;DHT22;54576;52.020;5.536;2024-03-08T11:27:37;8.80;90.50
67777;DHT22;54576;52.020;5.536;2024-03-08T11:30:05;8.80;89.90
67777;DHT22;54576;52.020;5.536;2024-03-08T11:32:38;8.90;90.20
67777;DHT22;54576;52.020;5.536;2024-03-08T11:35:20;9.00;91.80
67777;DHT22;54576;52.020;5.536;2024-03-08T11:37:48;9.10;84.60
67777;DHT22;54576;52.020;5.536;2024-03-08T11:40:14;9.10;90.90
67777;DHT22;54576;52.020;5.536;2024-03-08T11:42:44;9.20;91.50
67777;DHT22;54576;52.020;5.536;2024-03-08T11:45:12;9.30;92.20
67777;DHT22;54576;52.020;5.536;2024-03-08T11:47:41;9.40;92.70
67777;DHT22;54576;52.020;5.536;2024-03-08T11:50:07;9.60;99.90
67777;DHT22;54576;52.020;5.536;2024-03-08T11:52:36;9.60;99.90
67777;DHT22;54576;52.020;5.536;2024-03-08T11:55:03;9.60;99.90
67777;DHT22;54576;52.020;5.536;2024-03-08T11:57:30;9.70;99.90
67777;DHT22;54576;52.020;5.536;2024-03-08T11:59:56;9.80;99.90
67777;DHT22;54576;52.020;5.536;2024-03-08T12:02:32;9.80;99.90
67777;DHT22;54576;52.020;5.536;2024-03-08T12:05:01;9.80;99.90
67777;DHT22;54576;52.020;5.536;2024-03-08T12:07:31;9.90;99.90
67777;DHT22;54576;52.020;5.536;2024-03-08T12:10:20;9.90;99.90
67777;DHT22;54576;52.020;5.536;2024-03-08T12:12:48;9.90;80.80
67777;DHT22;54576;52.020;5.536;2024-03-08T12:15:15;9.90;99.90
67777;DHT22;54576;52.020;5.536;2024-03-08T12:17:43;9.90;91.90
67777;DHT22;54576;52.020;5.536;2024-03-08T12:20:20;9.90;86.30
67777;DHT22;54576;52.020;5.536;2024-03-08T12:22:50;9.90;85.20
67777;DHT22;54576;52.020;5.536;2024-03-08T12:25:18;10.10;89.10
67777;DHT22;54576;52.020;5.536;2024-03-08T12:27:44;10.10;99.90
67777;DHT22;54576;52.020;5.536;2024-03-08T12:30:24;10.10;99.90
67777;DHT22;54576;52.020;5.536;2024-03-08T12:32:59;10.10;86.50
67777;DHT22;54576;52.020;5.536;2024-03-08T12:35:26;10.10;84.50
67777;DHT22;54576;52.020;5.536;2024-03-08T12:37:53;10.00;86.80
67777;DHT22;54576;52.020;5.536;2024-03-08T12:40:31;10.10;89.30
67777;DHT22;54576;52.020;5.536;2024-03-08T12:43:01;10.20;89.40
67777;DHT22;54576;52.020;5.536;2024-03-08T12:45:27;10.30;87.80
67777;DHT22;54576;52.020;5.536;2024-03-08T12:47:53;10.40;99.90
67777;DHT22;54576;52.020;5.536;2024-03-08T12:55:12;10.20;99.90
67777;DHT22;54576;52.020;5.536;2024-03-08T12:57:38;10.30;99.90
67777;DHT22;54576;52.020;5.536;2024-03-08T13:00:05;10.30;99.90
67777;DHT22;54576;52.020;5.536;2024-03-08T13:07:24;10.30;92.40
67777;DHT22;54576;52.020;5.536;2024-03-08T13:09:53;10.30;90.30
67777;DHT22;54576;52.020;5.536;2024-03-08T13:12:20;10.30;96.30
67777;DHT22;54576;52.020;5.536;2024-03-08T13:17:12;10.30;99.90
67777;DHT22;54576;52.020;5.536;2024-03-08T13:22:05;10.20;99.90
67777;DHT22;54576;52.020;5.536;2024-03-08T13:24:31;10.20;99.90
67777;DHT22;54576;52.020;5.536;2024-03-08T13:26:56;10.30;92.10
67777;DHT22;54576;52.020;5.536;2024-03-08T13:29:22;10.40;93.00
67777;DHT22;54576;52.020;5.536;2024-03-08T13:31:48;10.40;90.60
67777;DHT22;54576;52.020;5.536;2024-03-08T13:41:46;10.10;99.90
67777;DHT22;54576;52.020;5.536;2024-03-08T13:44:12;10.40;99.90
67777;DHT22;54576;52.020;5.536;2024-03-08T13:46:38;10.30;99.90
67777;DHT22;54576;52.020;5.536;2024-03-08T13:49:05;10.40;99.90
67777;DHT22;54576;52.020;5.536;2024-03-08T14:11:06;10.40;99.90
67777;DHT22;54576;52.020;5.536;2024-03-08T14:13:42;10.40;85.30
67777;DHT22;54576;52.020;5.536;2024-03-08T14:16:09;10.40;97.20
67777;DHT22;54576;52.020;5.536;2024-03-08T14:18:35;10.50;88.70
67777;DHT22;54576;52.020;5.536;2024-03-08T14:21:02;10.40;79.10
67777;DHT22;54576;52.020;5.536;2024-03-08T14:23:29;10.40;81.40
67777;DHT22;54576;52.020;5.536;2024-03-08T14:25:55;10.50;83.90
67777;DHT22;54576;52.020;5.536;2024-03-08T14:28:20;10.50;94.60
67777;DHT22;54576;52.020;5.536;2024-03-08T14:30:48;10.50;99.90
67777;DHT22;54576;52.020;5.536;2024-03-08T14:52:48;10.40;99.90
67777;DHT22;54576;52.020;5.536;2024-03-08T14:55:17;10.40;70.80
67777;DHT22;54576;52.020;5.536;2024-03-08T14:57:50;10.30;72.00
67777;DHT22;54576;52.020;5.536;2024-03-08T15:00:20;10.30;74.90
67777;DHT22;54576;52.020;5.536;2024-03-08T15:03:01;10.40;73.50
67777;DHT22;54576;52.020;5.536;2024-03-08T15:05:27;10.40;72.30
67777;DHT22;54576;52.020;5.536;2024-03-08T15:07:54;10.30;73.90
67777;DHT22;54576;52.020;5.536;2024-03-08T15:10:20;10.40;73.60
67777;DHT22;54576;52.020;5.536;2024-03-08T15:12:48;10.40;74.00
67777;DHT22;54576;52.020;5.536;2024-03-08T15:15:14;10.40;73.00
67777;DHT22;54576;52.020;5.536;2024-03-08T15:17:43;10.30;73.40
67777;DHT22;54576;52.020;5.536;2024-03-08T15:20:10;10.30;74.20
67777;DHT22;54576;52.020;5.536;2024-03-08T15:22:43;10.40;72.10
67777;DHT22;54576;52.020;5.536;2024-03-08T15:25:12;10.30;71.00
67777;DHT22;54576;52.020;5.536;2024-03-08T15:27:42;10.30;70.30
67777;DHT22;54576;52.020;5.536;2024-03-08T15:30:08;10.30;72.50
67777;DHT22;54576;52.020;5.536;2024-03-08T15:32:39;10.30;73.40
67777;DHT22;54576;52.020;5.536;2024-03-08T15:35:05;10.20;70.60
67777;DHT22;54576;52.020;5.536;2024-03-08T15:37:30;10.20;72.40
67777;DHT22;54576;52.020;5.536;2024-03-08T15:39:56;10.20;74.30
67777;DHT22;54576;52.020;5.536;2024-03-08T15:42:22;10.30;74.90
67777;DHT22;54576;52.020;5.536;2024-03-08T15:44:48;10.30;75.80
67777;DHT22;54576;52.020;5.536;2024-03-08T15:47:13;10.30;76.20
67777;DHT22;54576;52.020;5.536;2024-03-08T15:49:39;10.30;75.70
67777;DHT22;54576;52.020;5.536;2024-03-08T15:52:05;10.30;76.30
67777;DHT22;54576;52.020;5.536;2024-03-08T15:54:31;10.30;72.80
67777;DHT22;54576;52.020;5.536;2024-03-08T15:57:02;10.20;75.00
67777;DHT22;54576;52.020;5.536;2024-03-08T15:59:33;10.20;73.70
67777;DHT22;54576;52.020;5.536;2024-03-08T16:02:02;10.10;71.90
67777;DHT22;54576;52.020;5.536;2024-03-08T16:04:29;10.10;70.80
67777;DHT22;54576;52.020;5.536;2024-03-08T16:06:55;10.10;73.00
67777;DHT22;54576;52.020;5.536;2024-03-08T16:09:21;10.00;72.10
67777;DHT22;54576;52.020;5.536;2024-03-08T16:11:47;9.90;73.50
67777;DHT22;54576;52.020;5.536;2024-03-08T16:14:13;10.00;71.90
67777;DHT22;54576;52.020;5.536;2024-03-08T16:16:41;9.90;72.30
67777;DHT22;54576;52.020;5.536;2024-03-08T16:19:07;9.90;72.70
67777;DHT22;54576;52.020;5.536;2024-03-08T16:21:33;9.90;73.40
67777;DHT22;54576;52.020;5.536;2024-03-08T16:23:59;9.90;71.00
67777;DHT22;54576;52.020;5.536;2024-03-08T16:26:25;9.80;71.70
67777;DHT22;54576;52.020;5.536;2024-03-08T16:28:53;9.80;73.80
67777;DHT22;54576;52.020;5.536;2024-03-08T16:31:20;9.80;72.00
67777;DHT22;54576;52.020;5.536;2024-03-08T16:33:45;9.70;71.40
67777;DHT22;54576;52.020;5.536;2024-03-08T16:36:12;9.70;72.30
67777;DHT22;54576;52.020;5.536;2024-03-08T16:38:39;9.60;71.60
67777;DHT22;54576;52.020;5.536;2024-03-08T16:41:06;9.60;72.10
67777;DHT22;54576;52.020;5.536;2024-03-08T16:43:31;9.60;73.20
67777;DHT22;54576;52.020;5.536;2024-03-08T16:45:57;9.60;73.60
67777;DHT22;54576;52.020;5.536;2024-03-08T16:48:26;9.50;73.90
67777;DHT22;54576;52.020;5.536;2024-03-08T16:50:52;9.40;74.50
67777;DHT22;54576;52.020;5.536;2024-03-08T16:53:19;9.40;75.00
67777;DHT22;54576;52.020;5.536;2024-03-08T16:55:45;9.40;75.00
67777;DHT22;54576;52.020;5.536;2024-03-08T16:58:12;9.30;75.30
67777;DHT22;54576;52.020;5.536;2024-03-08T17:00:41;9.30;75.00
67777;DHT22;54576;52.020;5.536;2024-03-08T17:03:07;9.20;73.80
67777;DHT22;54576;52.020;5.536;2024-03-08T17:05:33;9.30;71.80
67777;DHT22;54576;52.020;5.536;2024-03-08T17:08:00;9.20;72.50
67777;DHT22;54576;52.020;5.536;2024-03-08T17:10:30;9.20;73.40
67777;DHT22;54576;52.020;5.536;2024-03-08T17:12:57;9.10;73.80
67777;DHT22;54576;52.020;5.536;2024-03-08T17:15:25;9.10;71.20
67777;DHT22;54576;52.020;5.536;2024-03-08T17:17:53;9.00;72.80
67777;DHT22;54576;52.020;5.536;2024-03-08T17:20:20;9.00;73.70
67777;DHT22;54576;52.020;5.536;2024-03-08T17:22:51;8.90;73.80